createdAt,value
2018-09-25T03:01:08.725Z,0.00
2018-09-25T03:02:08.620Z,0.00
2018-09-25T03:03:08.224Z,0.00
2018-09-25T03:04:08.362Z,0.00
2018-09-25T03:05:09.040Z,0.00
2018-09-25T03:06:09.427Z,0.00
2018-09-25T03:07:09.129Z,0.00
2018-09-25T03:08:09.457Z,0.00
2018-09-25T03:09:09.652Z,0.00
2018-09-25T03:10:10.053Z,0.00
2018-09-25T03:11:10.180Z,0.00
2018-09-25T03:12:10.046Z,0.00
2018-09-25T03:13:10.484Z,0.00
2018-09-25T03:14:10.119Z,0.00
2018-09-25T03:16:10.629Z,0.00
2018-09-25T03:17:08.992Z,0.00
2018-09-25T03:18:08.570Z,0.00
2018-09-25T03:19:08.701Z,0.00
2018-09-25T03:20:08.796Z,0.00
2018-09-25T03:21:08.956Z,0.00
2018-09-25T03:22:10.525Z,0.00
2018-09-25T03:23:09.140Z,0.00
2018-09-25T03:24:09.423Z,0.00
2018-09-25T03:25:09.714Z,0.00
2018-09-25T03:26:09.962Z,0.00
2018-09-25T03:27:09.969Z,0.00
2018-09-25T03:28:10.345Z,0.00
2018-09-25T03:29:10.428Z,0.00
2018-09-25T03:30:10.569Z,0.00
2018-09-25T03:31:10.740Z,0.00
2018-09-25T03:32:10.940Z,0.00
2018-09-25T03:33:11.507Z,0.00
2018-09-25T03:34:11.173Z,0.00
2018-09-25T03:35:11.550Z,0.00
2018-09-25T03:36:11.617Z,0.00
2018-09-25T03:37:12.311Z,0.00
2018-09-25T03:38:12.968Z,0.00
2018-09-25T03:39:12.230Z,0.00
2018-09-25T03:40:12.460Z,0.00
2018-09-25T03:41:12.641Z,0.00
2018-09-25T03:42:12.994Z,0.00
2018-09-25T03:43:13.462Z,0.00
2018-09-25T03:44:13.576Z,0.00
2018-09-25T03:45:14.074Z,0.00
2018-09-25T03:46:13.734Z,0.00
2018-09-25T03:47:14.080Z,0.00
2018-09-25T03:48:14.170Z,0.00
2018-09-25T03:49:14.383Z,0.00
2018-09-25T03:50:14.745Z,0.00
2018-09-25T03:51:15.907Z,0.00
2018-09-25T03:52:15.059Z,0.00
2018-09-25T03:53:15.248Z,0.00
2018-09-25T03:54:15.010Z,0.00
2018-09-25T03:55:15.239Z,0.00
2018-09-25T03:56:15.483Z,0.00
2018-09-25T03:57:16.562Z,0.00
2018-09-25T03:58:15.753Z,0.00
2018-09-25T03:59:16.401Z,0.00
2018-09-25T04:00:16.206Z,0.00
2018-09-25T04:01:16.788Z,0.00
2018-09-25T04:02:16.347Z,0.00
2018-09-25T04:03:17.324Z,0.00
2018-09-25T04:04:16.870Z,0.00
2018-09-25T04:05:16.885Z,0.00
2018-09-25T04:06:17.154Z,0.00
2018-09-25T04:07:17.314Z,0.00
2018-09-25T04:08:17.402Z,0.00
2018-09-25T04:09:17.806Z,0.00
2018-09-25T04:10:18.081Z,0.00
2018-09-25T04:11:18.397Z,0.00
2018-09-25T04:12:18.159Z,0.00
2018-09-25T04:13:18.378Z,0.00
2018-09-25T04:14:18.718Z,0.00
2018-09-25T04:15:18.789Z,0.00
2018-09-25T04:16:18.915Z,0.00
2018-09-25T04:17:19.080Z,0.00
2018-09-25T04:18:19.205Z,0.00
2018-09-25T04:19:19.431Z,0.00
2018-09-25T04:20:20.165Z,0.00
2018-09-25T04:21:19.763Z,0.00
2018-09-25T04:22:19.923Z,0.00
2018-09-25T04:23:20.247Z,0.00
2018-09-25T04:24:20.358Z,0.00
2018-09-25T04:25:20.442Z,0.00
2018-09-25T04:26:20.673Z,0.00
2018-09-25T04:27:20.616Z,0.00
2018-09-25T04:28:20.883Z,0.00
2018-09-25T04:29:21.084Z,0.00
2018-09-25T04:30:21.393Z,0.00
2018-09-25T04:31:21.477Z,0.00
2018-09-25T04:32:21.601Z,0.00
2018-09-25T04:33:21.934Z,0.00
2018-09-25T04:34:22.034Z,0.00
2018-09-25T04:35:22.039Z,0.00
2018-09-25T04:36:22.354Z,0.00
2018-09-25T04:37:22.371Z,0.00
2018-09-25T04:38:22.722Z,0.00
2018-09-25T04:39:22.820Z,0.00
2018-09-25T04:40:22.955Z,0.00
2018-09-25T04:41:23.163Z,4.00
2018-09-25T04:42:23.590Z,0.00
2018-09-25T04:43:23.394Z,4.00
2018-09-25T04:44:23.732Z,4.00
2018-09-25T04:45:23.921Z,4.00
2018-09-25T04:46:24.087Z,4.00
2018-09-25T04:47:24.069Z,8.00
2018-09-25T04:48:24.459Z,8.00
2018-09-25T04:49:24.694Z,12.00
2018-09-25T04:50:25.205Z,8.00
2018-09-25T04:51:25.254Z,16.00
2018-09-25T04:52:25.228Z,16.00
2018-09-25T04:53:25.445Z,16.00
2018-09-25T04:54:25.438Z,20.00
2018-09-25T04:55:25.854Z,24.00
2018-09-25T04:56:25.837Z,32.00
2018-09-25T04:57:26.087Z,36.00
2018-09-25T04:58:26.813Z,40.00
2018-09-25T04:59:26.345Z,52.00
2018-09-25T05:00:26.520Z,60.00
2018-09-25T05:01:26.817Z,68.00
2018-09-25T05:02:26.875Z,80.00
2018-09-25T05:03:26.997Z,88.00
2018-09-25T05:04:27.247Z,104.00
2018-09-25T05:05:27.423Z,116.00
2018-09-25T05:06:27.429Z,132.00
2018-09-25T05:07:27.668Z,152.00
2018-09-25T05:08:27.925Z,168.00
2018-09-25T05:09:28.123Z,188.00
2018-09-25T05:10:28.227Z,212.00
2018-09-25T05:11:28.440Z,232.00
2018-09-25T05:12:28.431Z,256.00
2018-09-25T05:13:28.632Z,280.00
2018-09-25T05:14:28.846Z,304.00
2018-09-25T05:15:28.867Z,328.00
2018-09-25T05:16:29.334Z,356.00
2018-09-25T05:17:29.199Z,388.00
2018-09-25T05:18:29.515Z,420.00
2018-09-25T05:19:29.640Z,452.00
2018-09-25T05:20:29.748Z,480.00
2018-09-25T05:21:30.035Z,516.00
2018-09-25T05:22:30.303Z,552.00
2018-09-25T05:23:30.565Z,580.00
2018-09-25T05:24:30.520Z,616.00
2018-09-25T05:25:30.646Z,648.00
2018-09-25T05:26:30.868Z,680.00
2018-09-25T05:27:30.899Z,712.00
2018-09-25T05:28:31.360Z,740.00
2018-09-25T05:29:31.493Z,772.00
2018-09-25T05:30:31.477Z,800.00
2018-09-25T05:31:31.615Z,828.00
2018-09-25T05:32:32.030Z,864.00
2018-09-25T05:33:32.219Z,892.00
2018-09-25T05:34:32.360Z,928.00
2018-09-25T05:35:32.498Z,964.00
2018-09-25T05:36:32.701Z,1000.00
2018-09-25T05:37:32.728Z,1040.00
2018-09-25T05:38:32.936Z,1080.00
2018-09-25T05:39:33.231Z,1116.00
2018-09-25T05:40:33.368Z,1152.00
2018-09-25T05:41:33.463Z,1184.00
2018-09-25T05:42:33.739Z,1204.00
2018-09-25T05:43:33.834Z,1224.00
2018-09-25T05:44:34.203Z,1236.00
2018-09-25T05:45:34.360Z,1248.00
2018-09-25T05:46:34.190Z,1248.00
2018-09-25T05:47:34.476Z,1268.00
2018-09-25T05:48:34.788Z,1324.00
2018-09-25T05:49:34.696Z,1388.00
2018-09-25T05:50:35.054Z,1432.00
2018-09-25T05:51:35.223Z,1468.00
2018-09-25T05:52:35.399Z,1508.00
2018-09-25T05:53:35.452Z,1516.00
2018-09-25T05:54:35.701Z,1532.00
2018-09-25T05:55:35.843Z,1520.00
2018-09-25T05:56:35.948Z,1496.00
2018-09-25T05:57:36.134Z,1480.00
2018-09-25T05:58:36.438Z,1496.00
2018-09-25T05:59:36.504Z,1516.00
2018-09-25T06:00:36.706Z,1496.00
2018-09-25T06:01:36.921Z,1488.00
2018-09-25T06:02:37.000Z,1544.00
2018-09-25T06:03:37.396Z,1660.00
2018-09-25T06:04:37.357Z,1760.00
2018-09-25T06:05:37.522Z,1840.00
2018-09-25T06:06:37.779Z,1904.00
2018-09-25T06:07:37.937Z,1960.00
2018-09-25T06:08:38.213Z,2052.00
2018-09-25T06:09:38.332Z,2152.00
2018-09-25T06:10:38.433Z,2268.00
2018-09-25T06:11:38.599Z,2372.00
2018-09-25T06:12:38.743Z,2524.00
2018-09-25T06:13:39.004Z,2668.00
2018-09-25T06:14:39.817Z,2788.00
2018-09-25T06:15:39.432Z,2860.00
2018-09-25T06:16:39.495Z,2776.00
2018-09-25T06:17:39.955Z,2732.00
2018-09-25T06:18:39.901Z,2684.00
2018-09-25T06:19:40.171Z,2864.00
2018-09-25T06:20:40.390Z,2924.00
2018-09-25T06:21:40.596Z,2864.00
2018-09-25T06:22:40.969Z,2876.00
2018-09-25T06:25:26.138Z,2812.00
2018-09-25T06:26:26.275Z,2728.00
2018-09-25T06:27:26.743Z,2648.00
2018-09-25T06:28:27.115Z,2680.00
2018-09-25T06:30:26.876Z,2676.00
2018-09-25T06:31:27.438Z,3172.00
2018-09-25T06:32:27.615Z,3668.00
2018-09-25T06:33:27.797Z,4064.00
2018-09-25T06:34:26.332Z,4088.00
2018-09-25T06:37:01.473Z,4028.00
2018-09-25T06:38:02.844Z,3588.00
2018-09-25T06:39:01.641Z,3156.00
2018-09-25T06:40:03.315Z,3156.00
2018-09-25T06:41:02.273Z,3448.00
2018-09-25T06:42:02.797Z,3620.00
2018-09-25T06:43:02.820Z,3696.00
2018-09-25T06:44:00.908Z,3568.00
2018-09-25T06:45:00.250Z,3476.00
2018-09-25T06:46:00.277Z,3464.00
2018-09-25T06:47:00.900Z,3684.00
2018-09-25T06:48:01.899Z,3916.00
2018-09-25T06:49:01.022Z,4172.00
2018-09-25T06:50:01.108Z,4432.00
2018-09-25T06:51:01.169Z,4692.00
2018-09-25T06:52:01.526Z,4916.00
2018-09-25T06:53:01.492Z,4588.00
2018-09-25T06:54:01.640Z,4240.00
2018-09-25T06:55:02.238Z,3996.00
2018-09-25T06:56:02.057Z,4656.00
2018-09-25T06:57:02.233Z,5200.00
2018-09-25T06:58:02.391Z,5292.00
2018-09-25T06:59:02.569Z,4700.00
2018-09-25T07:00:02.619Z,4764.00
2018-09-25T07:01:02.889Z,5036.00
2018-09-25T07:02:02.951Z,5324.00
2018-09-25T07:03:03.090Z,5032.00
2018-09-25T07:04:03.192Z,4944.00
2018-09-25T07:05:03.606Z,4924.00
2018-09-25T07:06:03.874Z,4956.00
2018-09-25T07:07:03.985Z,5056.00
2018-09-25T07:08:04.043Z,5088.00
2018-09-25T07:09:04.225Z,5380.00
2018-09-25T07:10:04.739Z,5448.00
2018-09-25T07:11:04.805Z,5488.00
2018-09-25T07:12:04.713Z,5584.00
2018-09-25T07:13:04.866Z,5548.00
2018-09-25T07:14:05.070Z,5636.00
2018-09-25T07:15:05.315Z,5868.00
2018-09-25T07:16:05.464Z,5816.00
2018-09-25T07:17:05.542Z,5840.00
2018-09-25T07:18:05.866Z,6080.00
2018-09-25T07:19:06.011Z,6304.00
2018-09-25T07:20:06.516Z,6024.00
2018-09-25T07:21:06.292Z,6244.00
2018-09-25T07:22:06.464Z,6236.00
2018-09-25T07:23:06.606Z,6616.00
2018-09-25T07:24:06.697Z,8108.00
2018-09-25T07:25:06.878Z,8512.00
2018-09-25T07:26:07.222Z,8060.00
2018-09-25T07:27:07.438Z,7796.00
2018-09-25T07:28:07.399Z,8144.00
2018-09-25T07:29:07.598Z,7676.00
2018-09-25T07:30:07.718Z,7752.00
2018-09-25T07:31:07.950Z,8300.00
2018-09-25T07:32:08.884Z,7348.00
2018-09-25T07:33:08.522Z,7396.00
2018-09-25T07:34:08.521Z,7392.00
2018-09-25T07:35:08.641Z,6856.00
2018-09-25T07:36:09.021Z,6980.00
2018-09-25T07:37:09.030Z,8400.00
2018-09-25T07:38:09.678Z,10220.00
2018-09-25T07:39:09.323Z,10364.00
2018-09-25T07:40:09.466Z,9900.00
2018-09-25T07:41:11.128Z,10332.00
2018-09-25T07:42:10.181Z,11000.00
2018-09-25T07:43:10.472Z,11668.00
2018-09-25T07:44:10.795Z,12344.00
2018-09-25T07:45:10.380Z,10272.00
2018-09-25T07:46:10.514Z,12160.00
2018-09-25T07:47:10.814Z,10440.00
2018-09-25T07:48:10.974Z,11028.00
2018-09-25T07:49:11.062Z,11816.00
2018-09-25T07:50:11.429Z,11668.00
2018-09-25T07:51:11.336Z,12516.00
2018-09-25T07:52:11.644Z,12100.00
2018-09-25T07:53:11.607Z,11496.00
2018-09-25T07:54:23.223Z,12624.00
2018-09-25T07:55:14.772Z,10596.00
2018-09-25T07:57:14.473Z,12828.00
2018-09-25T07:58:14.892Z,16672.00
2018-09-25T07:59:15.510Z,12084.00
2018-09-25T08:00:15.414Z,8592.00
2018-09-25T08:01:15.879Z,8984.00
2018-09-25T08:02:14.397Z,9148.00
2018-09-25T08:03:13.259Z,8908.00
2018-09-25T08:04:13.353Z,9328.00
2018-09-25T08:05:13.555Z,12116.00
2018-09-25T08:06:13.706Z,16160.00
2018-09-25T08:08:58.368Z,15488.00
2018-09-25T08:09:58.906Z,16288.00
2018-09-25T08:10:58.847Z,14848.00
2018-09-25T08:11:58.524Z,16832.00
2018-09-25T08:12:58.882Z,17504.00
2018-09-25T08:13:59.306Z,17312.00
2018-09-25T08:14:59.447Z,17664.00
2018-09-25T08:15:59.909Z,17792.00
2018-09-25T08:16:59.537Z,18528.00
2018-09-25T08:18:00.065Z,18048.00
2018-09-25T08:19:00.382Z,16544.00
2018-09-25T08:19:59.899Z,16736.00
2018-09-25T08:20:59.826Z,17952.00
2018-09-25T08:22:00.343Z,19040.00
2018-09-25T08:23:00.836Z,19392.00
2018-09-25T08:24:01.809Z,19712.00
2018-09-25T08:25:01.524Z,19648.00
2018-09-25T08:26:00.777Z,19552.00
2018-09-25T08:26:59.434Z,19680.00
2018-09-25T08:27:59.083Z,20160.00
2018-09-25T08:28:59.235Z,22016.00
2018-09-25T08:29:59.344Z,22752.00
2018-09-25T08:30:59.476Z,21024.00
2018-09-25T08:31:59.687Z,20512.00
2018-09-25T08:33:00.562Z,22272.00
2018-09-25T08:34:00.092Z,22272.00
2018-09-25T08:35:00.389Z,23584.00
2018-09-25T08:36:00.508Z,25600.00
2018-09-25T08:37:00.744Z,26464.00
2018-09-25T08:38:00.875Z,24960.00
2018-09-25T08:39:01.127Z,27616.00
2018-09-25T08:40:01.165Z,27168.00
2018-09-25T08:41:01.292Z,27552.00
2018-09-25T08:42:01.519Z,29088.00
2018-09-25T08:43:01.688Z,28512.00
2018-09-25T08:44:01.920Z,28672.00
2018-09-25T08:45:02.228Z,31200.00
2018-09-25T08:46:02.529Z,31264.00
2018-09-25T08:47:02.422Z,31328.00
2018-09-25T08:48:02.498Z,32160.00
2018-09-25T08:49:02.659Z,29216.00
2018-09-25T08:50:02.843Z,31968.00
2018-09-25T08:51:04.395Z,33920.00
2018-09-25T08:52:03.129Z,33536.00
2018-09-25T08:53:03.324Z,34144.00
2018-09-25T08:54:10.717Z,34496.00
2018-09-25T08:55:03.638Z,32800.00
2018-09-25T08:56:03.811Z,33152.00
2018-09-25T08:57:04.079Z,36768.00
2018-09-25T08:58:04.240Z,35808.00
2018-09-25T08:59:04.420Z,36896.00
2018-09-25T09:00:04.496Z,38592.00
2018-09-25T09:01:04.765Z,37696.00
2018-09-25T09:02:04.830Z,38816.00
2018-09-25T09:03:04.927Z,39072.00
2018-09-25T09:04:05.134Z,40256.00
2018-09-25T09:05:05.455Z,40480.00
2018-09-25T09:06:05.612Z,40544.00
2018-09-25T09:07:05.751Z,39488.00
2018-09-25T09:08:06.704Z,38592.00
2018-09-25T09:09:06.082Z,41344.00
2018-09-25T09:10:06.190Z,44128.00
2018-09-25T09:11:06.363Z,43968.00
2018-09-25T09:12:06.529Z,44640.00
2018-09-25T09:13:06.783Z,44352.00
2018-09-25T09:14:06.830Z,45504.00
2018-09-25T09:15:06.998Z,44480.00
2018-09-25T09:16:07.140Z,42432.00
2018-09-25T09:17:07.327Z,40864.00
2018-09-25T09:18:07.448Z,40384.00
2018-09-25T09:19:07.699Z,42656.00
2018-09-25T09:20:08.052Z,44320.00
2018-09-25T09:21:08.799Z,44544.00
2018-09-25T09:22:08.233Z,45536.00
2018-09-25T09:23:08.504Z,49088.00
2018-09-25T09:24:08.617Z,52704.00
2018-09-25T09:25:08.895Z,52288.00
2018-09-25T09:26:09.048Z,51808.00
2018-09-25T09:27:09.218Z,54144.00
2018-09-25T09:28:09.353Z,54464.00
2018-09-25T09:29:09.556Z,52704.00
2018-09-25T09:30:09.697Z,52160.00
2018-09-25T09:31:09.859Z,54080.00
2018-09-25T09:32:10.102Z,57408.00
2018-09-25T09:33:10.246Z,59648.00
2018-09-25T09:34:10.865Z,58464.00
2018-09-25T09:35:10.556Z,60256.00
2018-09-25T09:36:10.666Z,62848.00
2018-09-25T09:37:10.968Z,60800.00
2018-09-25T09:38:11.018Z,61312.00
2018-09-25T09:39:11.271Z,63264.00
2018-09-25T09:40:12.107Z,62720.00
2018-09-25T09:41:11.767Z,63552.00
2018-09-25T09:42:11.817Z,59584.00
2018-09-25T09:43:12.023Z,51488.00
2018-09-25T09:44:12.148Z,36480.00
2018-09-25T09:45:12.390Z,29760.00
2018-09-25T09:46:12.470Z,44160.00
2018-09-25T09:47:13.245Z,54272.00
2018-09-25T09:48:12.742Z,14844.00
2018-09-25T09:49:12.976Z,64256.00
2018-09-25T09:50:13.256Z,28256.00
2018-09-25T09:51:13.324Z,11852.00
2018-09-25T09:52:13.523Z,34176.00
2018-09-25T09:53:13.687Z,18528.00
2018-09-25T09:54:13.838Z,75328.00
2018-09-25T09:55:14.133Z,76192.00
2018-09-25T09:56:14.212Z,76864.00
2018-09-25T09:57:14.424Z,78400.00
2018-09-25T09:58:14.575Z,77920.00
2018-09-25T09:59:14.781Z,77984.00
2018-09-25T10:00:14.893Z,40704.00
2018-09-25T10:01:15.049Z,27328.00
2018-09-25T10:02:15.417Z,69856.00
2018-09-25T10:03:15.506Z,57024.00
2018-09-25T10:04:15.634Z,13552.00
2018-09-25T10:05:15.839Z,11892.00
2018-09-25T10:06:16.004Z,12704.00
2018-09-25T10:07:16.243Z,23232.00
2018-09-25T10:08:16.308Z,23872.00
2018-09-25T10:09:16.528Z,79808.00
2018-09-25T10:10:16.704Z,75072.00
2018-09-25T10:11:16.762Z,75200.00
2018-09-25T10:12:17.156Z,80288.00
2018-09-25T10:13:17.245Z,79168.00
2018-09-25T10:14:17.363Z,69472.00
2018-09-25T10:15:17.797Z,58528.00
2018-09-25T10:16:17.670Z,22656.00
2018-09-25T10:17:17.995Z,81312.00
2018-09-25T10:18:18.112Z,22048.00
2018-09-25T10:19:18.189Z,23808.00
2018-09-25T10:20:18.492Z,19584.00
2018-09-25T10:21:18.594Z,28704.00
2018-09-25T10:22:18.719Z,46880.00
2018-09-25T10:23:18.998Z,32672.00
2018-09-25T10:24:19.088Z,19552.00
2018-09-25T10:25:19.256Z,40128.00
2018-09-25T10:26:19.462Z,72512.00
2018-09-25T10:27:19.669Z,89504.00
2018-09-25T10:28:19.753Z,22400.00
2018-09-25T10:29:19.928Z,13760.00
2018-09-25T10:30:20.119Z,12108.00
2018-09-25T10:31:20.228Z,11256.00
2018-09-25T10:32:20.423Z,10812.00
2018-09-25T10:33:21.176Z,10844.00
2018-09-25T10:34:22.678Z,11916.00
2018-09-25T10:35:20.961Z,25312.00
2018-09-25T10:36:21.058Z,12668.00
2018-09-25T10:37:21.328Z,10116.00
2018-09-25T10:38:21.531Z,10756.00
2018-09-25T10:39:21.659Z,79872.00
2018-09-25T10:40:21.829Z,70048.00
2018-09-25T10:41:22.165Z,70688.00
2018-09-25T10:42:22.445Z,76384.00
2018-09-25T10:43:22.367Z,73248.00
2018-09-25T10:44:22.520Z,67776.00
2018-09-25T10:45:22.732Z,79776.00
2018-09-25T10:46:22.852Z,75872.00
2018-09-25T10:47:23.156Z,80480.00
2018-09-25T10:48:23.363Z,86016.00
2018-09-25T10:49:23.473Z,84096.00
2018-09-25T10:50:23.686Z,80448.00
2018-09-25T10:51:23.776Z,78176.00
2018-09-25T10:52:23.925Z,82976.00
2018-09-25T10:53:24.253Z,91680.00
2018-09-25T10:54:24.368Z,90656.00
2018-09-25T10:55:24.575Z,84896.00
2018-09-25T10:56:24.672Z,87200.00
2018-09-25T10:57:24.772Z,43616.00
2018-09-25T10:58:24.956Z,16928.00
2018-09-25T10:59:25.163Z,20160.00
2018-09-25T11:00:25.439Z,17280.00
2018-09-25T11:01:25.577Z,12260.00
2018-09-25T11:02:25.767Z,14004.00
2018-09-25T11:03:26.016Z,12988.00
2018-09-25T11:04:26.109Z,13468.00
2018-09-25T11:05:26.230Z,13908.00
2018-09-25T11:06:26.409Z,13260.00
2018-09-25T11:07:26.600Z,12628.00
2018-09-25T11:08:26.811Z,12224.00
2018-09-25T11:09:26.973Z,11716.00
2018-09-25T11:10:27.149Z,11604.00
2018-09-25T11:11:27.418Z,11636.00
2018-09-25T11:12:27.503Z,11932.00
2018-09-25T11:13:27.630Z,12188.00
2018-09-25T11:14:27.826Z,12412.00
2018-09-25T11:15:27.946Z,12452.00
2018-09-25T11:16:28.176Z,12348.00
2018-09-25T11:17:28.335Z,12812.00
2018-09-25T11:18:28.578Z,13144.00
2018-09-25T11:19:28.633Z,13748.00
2018-09-25T11:20:28.880Z,14068.00
2018-09-25T11:21:29.016Z,13480.00
2018-09-25T11:22:29.239Z,26976.00
2018-09-25T11:23:29.297Z,89120.00
2018-09-25T11:24:29.786Z,86688.00
2018-09-25T11:25:29.724Z,91424.00
2018-09-25T11:26:29.864Z,96992.00
2018-09-25T11:27:30.730Z,105536.00
2018-09-25T11:28:30.405Z,110208.00
2018-09-25T11:29:30.628Z,109312.00
2018-09-25T11:30:30.678Z,103008.00
2018-09-25T11:31:30.818Z,40064.00
2018-09-25T11:32:30.982Z,27296.00
2018-09-25T11:33:31.194Z,90528.00
2018-09-25T11:34:31.383Z,66784.00
2018-09-25T11:35:31.549Z,33312.00
2018-09-25T11:36:31.614Z,23872.00
2018-09-25T11:37:31.870Z,21920.00
2018-09-25T11:38:31.995Z,18752.00
2018-09-25T11:39:32.193Z,16864.00
2018-09-25T11:40:32.315Z,20544.00
2018-09-25T11:41:32.513Z,16576.00
2018-09-25T11:42:32.630Z,13988.00
2018-09-25T11:43:32.839Z,12492.00
2018-09-25T11:44:33.029Z,11204.00
2018-09-25T11:45:33.150Z,10036.00
2018-09-25T11:46:33.358Z,9036.00
2018-09-25T11:47:33.632Z,8176.00
2018-09-25T11:48:34.044Z,7692.00
2018-09-25T11:49:33.886Z,7340.00
2018-09-25T11:50:34.080Z,6940.00
2018-09-25T11:51:34.236Z,6652.00
2018-09-25T11:52:34.399Z,6548.00
2018-09-25T11:53:34.536Z,6592.00
2018-09-25T11:54:34.771Z,6576.00
2018-09-25T11:55:34.860Z,6620.00
2018-09-25T11:56:35.136Z,6800.00
2018-09-25T11:57:35.171Z,7072.00
2018-09-25T11:58:35.535Z,7416.00
2018-09-25T11:59:35.581Z,7956.00
2018-09-25T12:00:35.688Z,8808.00
2018-09-25T12:01:35.840Z,9756.00
2018-09-25T12:02:36.049Z,10764.00
2018-09-25T12:03:36.208Z,11816.00
2018-09-25T12:04:36.472Z,12844.00
2018-09-25T12:05:36.638Z,13676.00
2018-09-25T12:06:36.732Z,14268.00
2018-09-25T12:07:36.889Z,14584.00
2018-09-25T12:08:37.118Z,16064.00
2018-09-25T12:09:37.240Z,20896.00
2018-09-25T12:10:37.373Z,51552.00
2018-09-25T12:11:37.526Z,83360.00
2018-09-25T12:12:37.714Z,27328.00
2018-09-25T12:13:37.942Z,34944.00
2018-09-25T12:14:38.026Z,35840.00
2018-09-25T12:15:38.176Z,28800.00
2018-09-25T12:16:38.423Z,73568.00
2018-09-25T12:17:38.491Z,64832.00
2018-09-25T12:18:38.771Z,68224.00
2018-09-25T12:19:38.885Z,119488.00
2018-09-25T12:20:39.083Z,128384.00
2018-09-25T12:21:39.336Z,85344.00
2018-09-25T12:22:39.457Z,122912.00
2018-09-25T12:23:39.616Z,111744.00
2018-09-25T12:24:39.793Z,107616.00
2018-09-25T12:25:39.878Z,113984.00
2018-09-25T12:26:40.166Z,22976.00
2018-09-25T12:27:40.181Z,18880.00
2018-09-25T12:28:40.396Z,16384.00
2018-09-25T12:29:40.576Z,14928.00
2018-09-25T12:30:40.807Z,14012.00
2018-09-25T12:31:40.904Z,13036.00
2018-09-25T12:32:41.166Z,12348.00
2018-09-25T12:33:41.258Z,12252.00
2018-09-25T12:34:41.545Z,11784.00
2018-09-25T12:35:41.656Z,11272.00
2018-09-25T12:36:41.831Z,11076.00
2018-09-25T12:37:41.991Z,10828.00
2018-09-25T12:38:42.169Z,10368.00
2018-09-25T12:39:42.397Z,10208.00
2018-09-25T12:40:42.552Z,10352.00
2018-09-25T12:41:42.713Z,10516.00
2018-09-25T12:42:42.856Z,10624.00
2018-09-25T12:43:43.101Z,10996.00
2018-09-25T12:44:43.222Z,11644.00
2018-09-25T12:45:43.454Z,13448.00
2018-09-25T12:46:43.499Z,14852.00
2018-09-25T12:47:43.892Z,23648.00
2018-09-25T12:48:43.965Z,83904.00
2018-09-25T12:49:44.122Z,17568.00
2018-09-25T12:50:44.320Z,16320.00
2018-09-25T12:51:44.433Z,17024.00
2018-09-25T12:52:44.624Z,18624.00
2018-09-25T12:53:44.767Z,21920.00
2018-09-25T12:54:44.942Z,55264.00
2018-09-25T12:55:45.094Z,25952.00
2018-09-25T12:56:45.241Z,24576.00
2018-09-25T12:57:45.382Z,22208.00
2018-09-25T12:58:45.622Z,20832.00
2018-09-25T12:59:45.836Z,56256.00
2018-09-25T13:00:46.094Z,125536.00
2018-09-25T13:01:46.104Z,116512.00
2018-09-25T13:02:46.331Z,122400.00
2018-09-25T13:03:46.531Z,114528.00
2018-09-25T13:04:46.679Z,115648.00
2018-09-25T13:05:46.875Z,111136.00
2018-09-25T13:06:47.055Z,99328.00
2018-09-25T13:07:47.161Z,104544.00
2018-09-25T13:08:47.340Z,103840.00
2018-09-25T13:09:47.514Z,102592.00
2018-09-25T13:10:47.668Z,98304.00
2018-09-25T13:11:47.857Z,95648.00
2018-09-25T13:12:48.094Z,100512.00
2018-09-25T13:13:48.198Z,99712.00
2018-09-25T13:14:48.478Z,98112.00
2018-09-25T13:15:48.684Z,99840.00
2018-09-25T13:16:48.789Z,105120.00
2018-09-25T13:17:49.031Z,108160.00
2018-09-25T13:18:49.091Z,111520.00
2018-09-25T13:19:49.268Z,110720.00
2018-09-25T13:20:49.508Z,102336.00
2018-09-25T13:21:49.591Z,91200.00
2018-09-25T13:22:49.868Z,86688.00
2018-09-25T13:23:49.928Z,96832.00
2018-09-25T13:24:50.137Z,78720.00
2018-09-25T13:25:50.377Z,21600.00
2018-09-25T13:26:50.512Z,14332.00
2018-09-25T13:27:50.687Z,12868.00
2018-09-25T13:28:50.968Z,13420.00
2018-09-25T13:29:51.107Z,10740.00
2018-09-25T13:30:51.320Z,9376.00
2018-09-25T13:31:52.133Z,8488.00
2018-09-25T13:32:51.661Z,7896.00
2018-09-25T13:33:51.797Z,7668.00
2018-09-25T13:34:51.922Z,7500.00
2018-09-25T13:35:52.175Z,7348.00
2018-09-25T13:36:52.318Z,7084.00
2018-09-25T13:37:52.594Z,6888.00
2018-09-25T13:38:52.669Z,6780.00
2018-09-25T13:39:52.971Z,6700.00
2018-09-25T13:40:53.124Z,6756.00
2018-09-25T13:41:53.227Z,6812.00
2018-09-25T13:42:53.513Z,6736.00
2018-09-25T13:43:53.674Z,6596.00
2018-09-25T13:44:53.814Z,6572.00
2018-09-25T13:45:54.015Z,6672.00
2018-09-25T13:46:54.109Z,6796.00
2018-09-25T13:47:54.419Z,6852.00
2018-09-25T13:48:54.468Z,6904.00
2018-09-25T13:49:54.762Z,6872.00
2018-09-25T13:50:54.857Z,6960.00
2018-09-25T13:52:55.198Z,7136.00
2018-09-25T13:53:55.354Z,7308.00
2018-09-25T13:54:55.496Z,7536.00
2018-09-25T13:55:55.795Z,7748.00
2018-09-25T13:56:55.897Z,8376.00
2018-09-25T13:57:56.073Z,14400.00
2018-09-25T13:58:56.257Z,28384.00
2018-09-25T13:59:56.321Z,42944.00
2018-09-25T14:00:56.569Z,10088.00
2018-09-25T14:01:56.716Z,10048.00
2018-09-25T14:02:56.883Z,9840.00
2018-09-25T14:03:57.044Z,9540.00
2018-09-25T14:04:57.266Z,8940.00
2018-09-25T14:05:57.391Z,8544.00
2018-09-25T14:06:57.599Z,8300.00
2018-09-25T14:07:57.757Z,8124.00
2018-09-25T14:08:57.933Z,8132.00
2018-09-25T14:09:58.070Z,8032.00
2018-09-25T14:10:58.193Z,7548.00
2018-09-25T14:11:58.349Z,7452.00
2018-09-25T14:12:58.600Z,7328.00
2018-09-25T14:13:58.726Z,7300.00
2018-09-25T14:14:58.913Z,7428.00
2018-09-25T14:15:59.133Z,8280.00
2018-09-25T14:16:59.212Z,8828.00
2018-09-25T14:17:59.481Z,9080.00
2018-09-25T14:18:59.637Z,9344.00
2018-09-25T14:19:59.780Z,9500.00
2018-09-25T14:20:59.992Z,9488.00
2018-09-25T14:22:00.176Z,9588.00
2018-09-25T14:23:00.672Z,8976.00
2018-09-25T14:24:00.537Z,9288.00
2018-09-25T14:25:00.719Z,55872.00
2018-09-25T14:26:00.922Z,97632.00
2018-09-25T14:27:01.807Z,92864.00
2018-09-25T14:28:01.542Z,78080.00
2018-09-25T14:29:02.124Z,94016.00
2018-09-25T14:30:01.808Z,87648.00
2018-09-25T14:31:01.702Z,84160.00
2018-09-25T14:32:01.876Z,80000.00
2018-09-25T14:33:02.134Z,72576.00
2018-09-25T14:34:03.446Z,78176.00
2018-09-25T14:35:03.046Z,77952.00
2018-09-25T14:37:02.833Z,85600.00
2018-09-25T14:38:03.004Z,66336.00
2018-09-25T14:39:03.299Z,48928.00
2018-09-25T14:40:03.290Z,53760.00
2018-09-25T14:41:03.508Z,46400.00
2018-09-25T14:42:03.898Z,35136.00
2018-09-25T14:43:03.824Z,22848.00
2018-09-25T14:44:03.996Z,12236.00
2018-09-25T14:45:04.332Z,9280.00
2018-09-25T14:46:04.419Z,9504.00
2018-09-25T14:47:04.597Z,13024.00
2018-09-25T14:48:04.783Z,11180.00
2018-09-25T14:49:04.914Z,8396.00
2018-09-25T14:50:05.197Z,8064.00
2018-09-25T14:51:06.943Z,8088.00
2018-09-25T14:52:05.583Z,8232.00
2018-09-25T14:53:05.637Z,8164.00
2018-09-25T14:54:05.943Z,8188.00
2018-09-25T14:55:06.044Z,8156.00
2018-09-25T14:56:06.302Z,8336.00
2018-09-25T14:57:06.403Z,8196.00
2018-09-25T14:58:06.595Z,7872.00
2018-09-25T14:59:06.719Z,8084.00
2018-09-25T15:00:07.023Z,7944.00
2018-09-25T15:01:07.748Z,7832.00
2018-09-25T15:02:07.387Z,7788.00
2018-09-25T15:03:07.737Z,7400.00
2018-09-25T15:04:07.723Z,7196.00
2018-09-25T15:05:07.890Z,7336.00
2018-09-25T15:06:09.157Z,7200.00
2018-09-25T15:08:08.450Z,7524.00
2018-09-25T15:09:08.587Z,7524.00
2018-09-25T15:10:08.751Z,8416.00
2018-09-25T15:11:09.005Z,7964.00
2018-09-25T15:12:09.106Z,6992.00
2018-09-25T15:13:09.329Z,7264.00
2018-09-25T15:14:10.321Z,7364.00
2018-09-25T15:15:09.776Z,7464.00
2018-09-25T15:16:10.599Z,11984.00
2018-09-25T15:17:10.046Z,15108.00
2018-09-25T15:18:10.185Z,8396.00
2018-09-25T15:19:10.448Z,6440.00